Cary, NC (27519)

5:57 AM EDT on August 30, 2015 (GMT -0400)
Pine Valley | | Change Station
CLOSE
Current Station
Personal Weather Station
Location: Cary, NC
Elevation: 486 ft
Nearby Weather Stations

Elev 486 ft 35.78 °N, 78.79 °W | Updated 3 seconds ago

Mostly Cloudy
Mostly Cloudy
66.1 °F
Feels Like 66.1 °F
N
0.0
Wind Variable Wind from SSE
Gusts 0.0 mph

Today
High -- | Low -- °F
--% Chance of Precip.
Yesterday
High -- | Low -- °F
Precip. -- in
6:45 AM 7:45 PM
Full, 99% visible
Pressure 30.13 in
Visibility 10.0 miles
Clouds Few 19000 ft
Mostly Cloudy 24000 ft
Dew Point 59 °F
Humidity 77%
Rainfall 0.04 in
Snow Depth Not available.
UV 0 out of 12
Pollen 7.80 out of 12
Air Quality Not available.
Flu Activity Not available.
METAR KRDU 300951Z 00000KT 10SM FEW190 BKN240 18/16 A3014 RMK AO2 SLP202 T01830161
Pressure 30.13 in
Visibility 10.0 miles
Clouds Few 19000 ft
Mostly Cloudy 24000 ft
Dew Point 59 °F
Humidity 77%
Rainfall 0.04 in
Snow Depth Not available.
UV 0 out of 12
Pollen 7.80 out of 12
Air Quality Not available.
Flu Activity Not available.
METAR KRDU 300951Z 00000KT 10SM FEW190 BKN240 18/16 A3014 RMK AO2 SLP202 T01830161

10-Day Weather Forecast

×

Almanac

Astronomy

Aug. 30, 2015 Rise Set
Actual Time
Civil Twilight
Nautical Twilight
Astronomical Twilight
Moon
Length of Visible Light
Length of Day
Tomorrow will be .
, % of the Moon is Illuminated

Today's Extremes

State Highs State Lows

Community

WunderPhotos

Upload Photos

1,850,919 photos uploaded!

WunderBlogs® & News

Nearby

Air Quality

  Air Quality AQ Index Pollutant
Not available.

Snow Depth

Station Depth Elevation

Earthquake Activity

City Distance Mag. Time & Date
Minimum magnitude displayed is 2.5.

Coastal Water Temperatures

Place Temperature

Stations

Nearby Weather Stations

Station Location Temp. Windchill Dew Point Humidity Wind Precip. Elev Updated Type